sensor_id;sensor_type;location;lat;lon;timestamp;P1;durP1;ratioP1;P2;durP2;ratioP2
52210;SDS011;38179;52.756;6.906;2022-12-19T00:01:18;36.53;;;22.17;;
52210;SDS011;38179;52.756;6.906;2022-12-19T00:03:49;36.72;;;21.67;;
52210;SDS011;38179;52.756;6.906;2022-12-19T00:06:20;38.63;;;23.65;;
52210;SDS011;38179;52.756;6.906;2022-12-19T00:08:48;37.42;;;23.10;;
52210;SDS011;38179;52.756;6.906;2022-12-19T00:11:16;36.33;;;21.73;;
52210;SDS011;38179;52.756;6.906;2022-12-19T00:13:44;39.40;;;23.52;;
52210;SDS011;38179;52.756;6.906;2022-12-19T00:16:11;39.85;;;23.08;;
52210;SDS011;38179;52.756;6.906;2022-12-19T00:18:39;37.28;;;23.02;;
52210;SDS011;38179;52.756;6.906;2022-12-19T00:21:06;37.03;;;22.35;;
52210;SDS011;38179;52.756;6.906;2022-12-19T00:23:33;42.38;;;23.10;;
52210;SDS011;38179;52.756;6.906;2022-12-19T00:26:35;41.25;;;22.63;;
52210;SDS011;38179;52.756;6.906;2022-12-19T00:28:54;36.35;;;21.95;;
52210;SDS011;38179;52.756;6.906;2022-12-19T00:31:22;37.47;;;23.00;;
52210;SDS011;38179;52.756;6.906;2022-12-19T00:33:49;40.67;;;22.73;;
52210;SDS011;38179;52.756;6.906;2022-12-19T00:36:17;40.80;;;23.83;;
52210;SDS011;38179;52.756;6.906;2022-12-19T00:38:47;41.00;;;24.20;;
52210;SDS011;38179;52.756;6.906;2022-12-19T00:43:43;36.92;;;21.98;;
52210;SDS011;38179;52.756;6.906;2022-12-19T00:46:12;37.58;;;22.38;;
52210;SDS011;38179;52.756;6.906;2022-12-19T00:48:39;38.35;;;23.17;;
52210;SDS011;38179;52.756;6.906;2022-12-19T00:51:10;40.03;;;23.48;;
52210;SDS011;38179;52.756;6.906;2022-12-19T00:53:40;36.88;;;22.40;;
52210;SDS011;38179;52.756;6.906;2022-12-19T00:56:09;42.70;;;24.15;;
52210;SDS011;38179;52.756;6.906;2022-12-19T00:58:37;41.58;;;23.65;;
52210;SDS011;38179;52.756;6.906;2022-12-19T01:01:06;41.00;;;23.05;;
52210;SDS011;38179;52.756;6.906;2022-12-19T01:03:43;39.78;;;23.75;;
52210;SDS011;38179;52.756;6.906;2022-12-19T01:06:09;40.58;;;22.83;;
52210;SDS011;38179;52.756;6.906;2022-12-19T01:08:35;41.67;;;23.13;;
52210;SDS011;38179;52.756;6.906;2022-12-19T01:11:01;39.22;;;23.38;;
52210;SDS011;38179;52.756;6.906;2022-12-19T01:13:28;38.78;;;23.38;;
52210;SDS011;38179;52.756;6.906;2022-12-19T01:15:55;43.00;;;23.35;;
52210;SDS011;38179;52.756;6.906;2022-12-19T01:18:25;42.30;;;24.33;;
52210;SDS011;38179;52.756;6.906;2022-12-19T01:20:51;38.20;;;22.75;;
52210;SDS011;38179;52.756;6.906;2022-12-19T01:23:17;38.80;;;22.52;;
52210;SDS011;38179;52.756;6.906;2022-12-19T01:25:47;36.95;;;22.70;;
52210;SDS011;38179;52.756;6.906;2022-12-19T01:28:16;42.65;;;23.80;;
52210;SDS011;38179;52.756;6.906;2022-12-19T01:30:42;39.58;;;23.38;;
52210;SDS011;38179;52.756;6.906;2022-12-19T01:33:11;42.05;;;25.13;;
52210;SDS011;38179;52.756;6.906;2022-12-19T01:35:41;39.97;;;23.65;;
52210;SDS011;38179;52.756;6.906;2022-12-19T01:38:11;44.20;;;25.02;;
52210;SDS011;38179;52.756;6.906;2022-12-19T01:40:38;39.97;;;23.25;;
52210;SDS011;38179;52.756;6.906;2022-12-19T01:43:04;40.35;;;23.20;;
52210;SDS011;38179;52.756;6.906;2022-12-19T01:45:36;42.58;;;24.52;;
52210;SDS011;38179;52.756;6.906;2022-12-19T01:48:10;42.15;;;25.05;;
52210;SDS011;38179;52.756;6.906;2022-12-19T01:50:50;44.22;;;24.90;;
52210;SDS011;38179;52.756;6.906;2022-12-19T01:53:29;38.58;;;23.08;;
52210;SDS011;38179;52.756;6.906;2022-12-19T01:56:01;39.42;;;23.40;;
52210;SDS011;38179;52.756;6.906;2022-12-19T01:58:30;46.90;;;24.67;;
52210;SDS011;38179;52.756;6.906;2022-12-19T02:00:56;44.88;;;24.48;;
52210;SDS011;38179;52.756;6.906;2022-12-19T02:03:26;40.92;;;23.48;;
52210;SDS011;38179;52.756;6.906;2022-12-19T02:05:53;45.83;;;24.02;;
52210;SDS011;38179;52.756;6.906;2022-12-19T02:08:21;42.75;;;24.65;;
52210;SDS011;38179;52.756;6.906;2022-12-19T02:10:49;41.22;;;23.90;;
52210;SDS011;38179;52.756;6.906;2022-12-19T02:13:15;40.72;;;23.90;;
52210;SDS011;38179;52.756;6.906;2022-12-19T02:18:39;42.80;;;23.95;;
52210;SDS011;38179;52.756;6.906;2022-12-19T02:26:55;42.95;;;24.63;;
52210;SDS011;38179;52.756;6.906;2022-12-19T02:32:06;40.85;;;23.10;;
52210;SDS011;38179;52.756;6.906;2022-12-19T02:37:52;42.50;;;23.25;;
52210;SDS011;38179;52.756;6.906;2022-12-19T02:40:28;45.08;;;24.05;;
52210;SDS011;38179;52.756;6.906;2022-12-19T02:43:02;46.40;;;26.63;;
52210;SDS011;38179;52.756;6.906;2022-12-19T02:45:31;45.03;;;25.38;;
52210;SDS011;38179;52.756;6.906;2022-12-19T02:48:00;47.63;;;24.88;;
52210;SDS011;38179;52.756;6.906;2022-12-19T02:50:38;54.67;;;27.98;;
52210;SDS011;38179;52.756;6.906;2022-12-19T02:53:05;46.05;;;26.55;;
52210;SDS011;38179;52.756;6.906;2022-12-19T02:55:50;47.47;;;27.30;;
52210;SDS011;38179;52.756;6.906;2022-12-19T03:00:52;42.80;;;23.63;;
52210;SDS011;38179;52.756;6.906;2022-12-19T03:09:00;56.90;;;28.95;;
52210;SDS011;38179;52.756;6.906;2022-12-19T03:11:34;56.05;;;28.70;;
52210;SDS011;38179;52.756;6.906;2022-12-19T03:14:05;59.42;;;28.35;;
52210;SDS011;38179;52.756;6.906;2022-12-19T03:16:33;55.10;;;29.42;;
52210;SDS011;38179;52.756;6.906;2022-12-19T03:19:00;60.25;;;29.73;;
52210;SDS011;38179;52.756;6.906;2022-12-19T03:24:12;55.67;;;29.45;;
52210;SDS011;38179;52.756;6.906;2022-12-19T03:26:43;56.50;;;28.27;;
52210;SDS011;38179;52.756;6.906;2022-12-19T03:29:21;55.78;;;29.05;;
52210;SDS011;38179;52.756;6.906;2022-12-19T03:31:52;58.38;;;30.42;;
52210;SDS011;38179;52.756;6.906;2022-12-19T03:34:21;57.08;;;29.42;;
52210;SDS011;38179;52.756;6.906;2022-12-19T03:36:54;55.13;;;29.27;;
52210;SDS011;38179;52.756;6.906;2022-12-19T03:39:22;59.92;;;32.05;;
52210;SDS011;38179;52.756;6.906;2022-12-19T03:41:49;55.70;;;30.08;;
52210;SDS011;38179;52.756;6.906;2022-12-19T03:44:35;60.53;;;29.98;;
52210;SDS011;38179;52.756;6.906;2022-12-19T03:47:08;61.15;;;29.02;;
52210;SDS011;38179;52.756;6.906;2022-12-19T03:49:44;57.63;;;30.00;;
52210;SDS011;38179;52.756;6.906;2022-12-19T03:52:19;68.75;;;31.02;;
52210;SDS011;38179;52.756;6.906;2022-12-19T03:54:53;61.30;;;31.55;;
52210;SDS011;38179;52.756;6.906;2022-12-19T03:57:33;60.65;;;30.98;;
52210;SDS011;38179;52.756;6.906;2022-12-19T04:00:08;62.30;;;31.58;;
52210;SDS011;38179;52.756;6.906;2022-12-19T04:02:38;71.90;;;32.00;;
52210;SDS011;38179;52.756;6.906;2022-12-19T04:05:09;61.30;;;31.42;;
52210;SDS011;38179;52.756;6.906;2022-12-19T04:07:38;64.72;;;32.53;;
52210;SDS011;38179;52.756;6.906;2022-12-19T04:10:08;66.05;;;31.20;;
52210;SDS011;38179;52.756;6.906;2022-12-19T04:12:46;67.75;;;32.53;;
52210;SDS011;38179;52.756;6.906;2022-12-19T04:15:16;70.65;;;33.20;;
52210;SDS011;38179;52.756;6.906;2022-12-19T04:20:20;62.42;;;31.67;;
52210;SDS011;38179;52.756;6.906;2022-12-19T04:25:32;66.57;;;33.75;;
52210;SDS011;38179;52.756;6.906;2022-12-19T04:28:10;58.67;;;31.55;;
52210;SDS011;38179;52.756;6.906;2022-12-19T04:30:46;65.63;;;32.92;;
52210;SDS011;38179;52.756;6.906;2022-12-19T04:33:13;59.88;;;31.42;;
52210;SDS011;38179;52.756;6.906;2022-12-19T04:35:39;66.25;;;34.78;;
52210;SDS011;38179;52.756;6.906;2022-12-19T04:38:05;64.35;;;33.17;;
52210;SDS011;38179;52.756;6.906;2022-12-19T04:40:32;67.32;;;33.55;;
52210;SDS011;38179;52.756;6.906;2022-12-19T04:42:59;64.03;;;32.33;;
52210;SDS011;38179;52.756;6.906;2022-12-19T04:45:25;60.97;;;33.00;;
52210;SDS011;38179;52.756;6.906;2022-12-19T04:47:52;64.95;;;33.47;;
52210;SDS011;38179;52.756;6.906;2022-12-19T04:50:17;64.38;;;33.03;;
52210;SDS011;38179;52.756;6.906;2022-12-19T04:52:43;66.00;;;31.80;;
52210;SDS011;38179;52.756;6.906;2022-12-19T04:55:09;68.82;;;31.70;;
52210;SDS011;38179;52.756;6.906;2022-12-19T04:57:35;65.97;;;30.90;;
52210;SDS011;38179;52.756;6.906;2022-12-19T05:00:01;59.97;;;31.45;;
52210;SDS011;38179;52.756;6.906;2022-12-19T05:02:29;68.00;;;33.80;;
52210;SDS011;38179;52.756;6.906;2022-12-19T05:04:55;64.20;;;32.35;;
52210;SDS011;38179;52.756;6.906;2022-12-19T05:07:20;65.22;;;33.33;;
52210;SDS011;38179;52.756;6.906;2022-12-19T05:09:46;64.68;;;30.65;;
52210;SDS011;38179;52.756;6.906;2022-12-19T05:12:13;64.38;;;32.35;;
52210;SDS011;38179;52.756;6.906;2022-12-19T05:14:38;62.10;;;32.42;;
52210;SDS011;38179;52.756;6.906;2022-12-19T05:17:04;68.90;;;33.67;;
52210;SDS011;38179;52.756;6.906;2022-12-19T05:19:30;63.25;;;32.88;;
52210;SDS011;38179;52.756;6.906;2022-12-19T05:21:56;65.45;;;32.42;;
52210;SDS011;38179;52.756;6.906;2022-12-19T05:24:22;67.45;;;31.20;;
52210;SDS011;38179;52.756;6.906;2022-12-19T05:26:48;64.05;;;33.13;;
52210;SDS011;38179;52.756;6.906;2022-12-19T05:29:14;63.53;;;31.83;;
52210;SDS011;38179;52.756;6.906;2022-12-19T05:31:40;74.97;;;35.05;;
52210;SDS011;38179;52.756;6.906;2022-12-19T05:34:06;74.90;;;34.75;;
52210;SDS011;38179;52.756;6.906;2022-12-19T05:36:32;72.97;;;34.25;;
52210;SDS011;38179;52.756;6.906;2022-12-19T05:38:58;66.50;;;33.15;;
52210;SDS011;38179;52.756;6.906;2022-12-19T05:41:24;58.90;;;31.73;;
52210;SDS011;38179;52.756;6.906;2022-12-19T05:43:51;62.88;;;33.08;;
52210;SDS011;38179;52.756;6.906;2022-12-19T05:46:18;67.03;;;34.15;;
52210;SDS011;38179;52.756;6.906;2022-12-19T05:48:44;65.50;;;32.72;;
52210;SDS011;38179;52.756;6.906;2022-12-19T05:51:11;70.72;;;33.50;;
52210;SDS011;38179;52.756;6.906;2022-12-19T05:53:37;66.40;;;32.17;;
52210;SDS011;38179;52.756;6.906;2022-12-19T06:26:18;55.50;;;29.83;;
52210;SDS011;38179;52.756;6.906;2022-12-19T06:39:53;49.17;;;28.30;;
52210;SDS011;38179;52.756;6.906;2022-12-19T06:42:19;54.15;;;30.58;;
52210;SDS011;38179;52.756;6.906;2022-12-19T06:44:51;49.97;;;28.95;;
52210;SDS011;38179;52.756;6.906;2022-12-19T06:47:19;52.65;;;29.30;;
52210;SDS011;38179;52.756;6.906;2022-12-19T06:49:46;45.30;;;28.08;;
52210;SDS011;38179;52.756;6.906;2022-12-19T06:52:13;50.50;;;28.50;;
52210;SDS011;38179;52.756;6.906;2022-12-19T06:54:39;45.60;;;27.42;;
52210;SDS011;38179;52.756;6.906;2022-12-19T06:57:05;50.60;;;28.95;;
52210;SDS011;38179;52.756;6.906;2022-12-19T06:59:31;46.30;;;28.48;;
52210;SDS011;38179;52.756;6.906;2022-12-19T07:02:31;53.55;;;29.80;;
52210;SDS011;38179;52.756;6.906;2022-12-19T07:05:01;49.72;;;28.80;;
52210;SDS011;38179;52.756;6.906;2022-12-19T07:07:30;49.22;;;30.27;;
52210;SDS011;38179;52.756;6.906;2022-12-19T07:09:56;50.97;;;28.85;;
52210;SDS011;38179;52.756;6.906;2022-12-19T07:12:22;50.70;;;29.55;;
52210;SDS011;38179;52.756;6.906;2022-12-19T07:14:48;50.45;;;29.35;;
52210;SDS011;38179;52.756;6.906;2022-12-19T07:17:14;56.40;;;30.88;;
52210;SDS011;38179;52.756;6.906;2022-12-19T07:19:40;49.60;;;28.67;;
52210;SDS011;38179;52.756;6.906;2022-12-19T07:22:06;44.38;;;27.85;;
52210;SDS011;38179;52.756;6.906;2022-12-19T07:24:33;48.92;;;28.45;;
52210;SDS011;38179;52.756;6.906;2022-12-19T07:27:00;42.13;;;27.25;;
52210;SDS011;38179;52.756;6.906;2022-12-19T07:29:27;46.78;;;28.55;;
52210;SDS011;38179;52.756;6.906;2022-12-19T07:31:53;48.38;;;26.58;;
52210;SDS011;38179;52.756;6.906;2022-12-19T07:34:19;44.22;;;24.67;;
52210;SDS011;38179;52.756;6.906;2022-12-19T07:36:45;44.30;;;26.33;;
52210;SDS011;38179;52.756;6.906;2022-12-19T07:39:11;38.65;;;24.23;;
52210;SDS011;38179;52.756;6.906;2022-12-19T07:41:37;42.90;;;26.13;;
52210;SDS011;38179;52.756;6.906;2022-12-19T07:46:36;43.28;;;27.05;;
52210;SDS011;38179;52.756;6.906;2022-12-19T07:49:02;40.28;;;25.35;;
52210;SDS011;38179;52.756;6.906;2022-12-19T07:51:28;44.95;;;25.88;;
52210;SDS011;38179;52.756;6.906;2022-12-19T07:53:54;42.92;;;26.40;;
52210;SDS011;38179;52.756;6.906;2022-12-19T07:56:20;42.30;;;26.25;;
52210;SDS011;38179;52.756;6.906;2022-12-19T07:58:46;37.80;;;23.92;;
52210;SDS011;38179;52.756;6.906;2022-12-19T08:01:12;41.05;;;25.80;;
52210;SDS011;38179;52.756;6.906;2022-12-19T08:03:38;36.80;;;22.40;;
52210;SDS011;38179;52.756;6.906;2022-12-19T08:06:04;39.08;;;25.42;;
52210;SDS011;38179;52.756;6.906;2022-12-19T08:08:31;39.15;;;26.02;;
52210;SDS011;38179;52.756;6.906;2022-12-19T08:11:04;38.22;;;25.40;;
52210;SDS011;38179;52.756;6.906;2022-12-19T08:27:14;34.83;;;22.60;;
52210;SDS011;38179;52.756;6.906;2022-12-19T08:29:41;35.00;;;23.95;;
52210;SDS011;38179;52.756;6.906;2022-12-19T08:40:32;39.58;;;22.30;;
52210;SDS011;38179;52.756;6.906;2022-12-19T08:43:07;35.92;;;23.63;;
52210;SDS011;38179;52.756;6.906;2022-12-19T08:45:33;38.65;;;24.25;;
52210;SDS011;38179;52.756;6.906;2022-12-19T08:47:59;36.08;;;24.17;;
52210;SDS011;38179;52.756;6.906;2022-12-19T08:50:24;39.25;;;25.15;;
52210;SDS011;38179;52.756;6.906;2022-12-19T08:52:50;39.33;;;25.98;;
52210;SDS011;38179;52.756;6.906;2022-12-19T08:55:16;37.83;;;24.73;;
52210;SDS011;38179;52.756;6.906;2022-12-19T08:57:42;39.63;;;24.73;;
52210;SDS011;38179;52.756;6.906;2022-12-19T09:00:08;41.42;;;25.50;;
52210;SDS011;38179;52.756;6.906;2022-12-19T09:02:34;40.50;;;25.38;;
52210;SDS011;38179;52.756;6.906;2022-12-19T09:05:00;39.63;;;24.50;;
52210;SDS011;38179;52.756;6.906;2022-12-19T09:07:26;40.50;;;25.17;;
52210;SDS011;38179;52.756;6.906;2022-12-19T09:09:53;41.75;;;24.42;;
52210;SDS011;38179;52.756;6.906;2022-12-19T09:12:18;39.65;;;24.95;;
52210;SDS011;38179;52.756;6.906;2022-12-19T09:17:26;39.15;;;25.30;;
52210;SDS011;38179;52.756;6.906;2022-12-19T09:19:52;41.47;;;26.33;;
52210;SDS011;38179;52.756;6.906;2022-12-19T09:22:18;43.42;;;27.25;;
52210;SDS011;38179;52.756;6.906;2022-12-19T09:24:45;38.67;;;25.52;;
52210;SDS011;38179;52.756;6.906;2022-12-19T09:27:11;39.03;;;25.50;;
52210;SDS011;38179;52.756;6.906;2022-12-19T09:29:36;40.63;;;25.60;;
52210;SDS011;38179;52.756;6.906;2022-12-19T09:32:02;39.38;;;25.20;;
52210;SDS011;38179;52.756;6.906;2022-12-19T09:34:28;39.10;;;25.67;;
52210;SDS011;38179;52.756;6.906;2022-12-19T09:36:54;41.88;;;25.33;;
52210;SDS011;38179;52.756;6.906;2022-12-19T09:39:20;38.20;;;25.25;;
52210;SDS011;38179;52.756;6.906;2022-12-19T09:44:50;37.30;;;25.42;;
52210;SDS011;38179;52.756;6.906;2022-12-19T09:47:41;34.92;;;23.65;;
52210;SDS011;38179;52.756;6.906;2022-12-19T09:50:21;35.20;;;24.45;;
52210;SDS011;38179;52.756;6.906;2022-12-19T09:52:56;34.53;;;23.23;;
52210;SDS011;38179;52.756;6.906;2022-12-19T09:55:37;35.58;;;23.45;;
52210;SDS011;38179;52.756;6.906;2022-12-19T10:03:31;30.88;;;22.35;;
52210;SDS011;38179;52.756;6.906;2022-12-19T10:08:32;29.25;;;23.33;;
52210;SDS011;38179;52.756;6.906;2022-12-19T10:14:02;27.53;;;20.33;;
52210;SDS011;38179;52.756;6.906;2022-12-19T10:25:37;26.55;;;20.45;;
52210;SDS011;38179;52.756;6.906;2022-12-19T10:28:35;27.48;;;19.75;;
52210;SDS011;38179;52.756;6.906;2022-12-19T10:44:48;29.55;;;20.83;;
52210;SDS011;38179;52.756;6.906;2022-12-19T10:47:16;27.27;;;20.00;;
52210;SDS011;38179;52.756;6.906;2022-12-19T10:57:58;26.25;;;18.80;;
52210;SDS011;38179;52.756;6.906;2022-12-19T11:00:26;24.83;;;17.98;;
52210;SDS011;38179;52.756;6.906;2022-12-19T11:03:03;23.40;;;18.92;;
52210;SDS011;38179;52.756;6.906;2022-12-19T11:05:40;25.17;;;19.90;;
52210;SDS011;38179;52.756;6.906;2022-12-19T11:08:18;25.17;;;18.80;;
52210;SDS011;38179;52.756;6.906;2022-12-19T11:10:48;25.05;;;19.42;;
52210;SDS011;38179;52.756;6.906;2022-12-19T11:13:45;24.67;;;18.90;;
52210;SDS011;38179;52.756;6.906;2022-12-19T11:16:13;24.60;;;19.05;;
52210;SDS011;38179;52.756;6.906;2022-12-19T11:18:47;26.48;;;18.90;;
52210;SDS011;38179;52.756;6.906;2022-12-19T11:21:29;22.90;;;18.38;;
52210;SDS011;38179;52.756;6.906;2022-12-19T11:29:20;25.80;;;19.70;;
52210;SDS011;38179;52.756;6.906;2022-12-19T11:31:48;24.20;;;18.90;;
52210;SDS011;38179;52.756;6.906;2022-12-19T11:34:23;25.85;;;18.33;;
52210;SDS011;38179;52.756;6.906;2022-12-19T11:36:53;25.60;;;19.52;;
52210;SDS011;38179;52.756;6.906;2022-12-19T11:42:10;26.60;;;19.70;;
52210;SDS011;38179;52.756;6.906;2022-12-19T11:48:02;23.88;;;18.45;;
52210;SDS011;38179;52.756;6.906;2022-12-19T11:50:47;26.77;;;19.33;;
52210;SDS011;38179;52.756;6.906;2022-12-19T11:53:28;24.13;;;18.70;;
52210;SDS011;38179;52.756;6.906;2022-12-19T11:56:02;25.92;;;19.55;;
52210;SDS011;38179;52.756;6.906;2022-12-19T11:58:33;26.65;;;19.70;;
52210;SDS011;38179;52.756;6.906;2022-12-19T12:07:00;22.90;;;18.02;;
52210;SDS011;38179;52.756;6.906;2022-12-19T12:09:44;25.70;;;20.05;;
52210;SDS011;38179;52.756;6.906;2022-12-19T12:23:13;22.23;;;18.27;;
52210;SDS011;38179;52.756;6.906;2022-12-19T12:25:52;24.05;;;19.08;;
52210;SDS011;38179;52.756;6.906;2022-12-19T12:33:50;22.38;;;17.48;;
52210;SDS011;38179;52.756;6.906;2022-12-19T12:37:06;22.75;;;17.90;;
52210;SDS011;38179;52.756;6.906;2022-12-19T12:42:27;21.85;;;18.42;;
52210;SDS011;38179;52.756;6.906;2022-12-19T12:44:46;21.92;;;17.10;;
52210;SDS011;38179;52.756;6.906;2022-12-19T12:47:20;24.90;;;18.02;;
52210;SDS011;38179;52.756;6.906;2022-12-19T12:55:45;20.30;;;16.38;;
52210;SDS011;38179;52.756;6.906;2022-12-19T12:57:56;19.55;;;15.88;;
52210;SDS011;38179;52.756;6.906;2022-12-19T13:02:56;20.83;;;17.00;;
52210;SDS011;38179;52.756;6.906;2022-12-19T13:05:39;20.80;;;17.73;;
52210;SDS011;38179;52.756;6.906;2022-12-19T13:11:02;21.25;;;16.88;;
52210;SDS011;38179;52.756;6.906;2022-12-19T13:13:59;19.27;;;16.00;;
52210;SDS011;38179;52.756;6.906;2022-12-19T13:19:25;21.15;;;16.38;;
52210;SDS011;38179;52.756;6.906;2022-12-19T13:24:30;19.08;;;14.82;;
52210;SDS011;38179;52.756;6.906;2022-12-19T13:27:02;18.80;;;15.23;;
52210;SDS011;38179;52.756;6.906;2022-12-19T13:29:30;20.65;;;15.70;;
52210;SDS011;38179;52.756;6.906;2022-12-19T13:35:01;14.07;;;12.52;;
52210;SDS011;38179;52.756;6.906;2022-12-19T13:37:29;17.42;;;14.18;;
52210;SDS011;38179;52.756;6.906;2022-12-19T13:40:24;16.35;;;13.82;;
52210;SDS011;38179;52.756;6.906;2022-12-19T13:45:51;16.00;;;12.27;;
52210;SDS011;38179;52.756;6.906;2022-12-19T13:50:57;14.98;;;12.95;;
52210;SDS011;38179;52.756;6.906;2022-12-19T13:53:31;18.17;;;13.43;;
52210;SDS011;38179;52.756;6.906;2022-12-19T13:55:58;14.25;;;12.70;;
52210;SDS011;38179;52.756;6.906;2022-12-19T13:58:31;15.25;;;13.32;;
52210;SDS011;38179;52.756;6.906;2022-12-19T14:01:12;16.13;;;12.70;;
52210;SDS011;38179;52.756;6.906;2022-12-19T14:03:51;16.85;;;13.25;;
52210;SDS011;38179;52.756;6.906;2022-12-19T14:06:22;16.17;;;13.57;;
52210;SDS011;38179;52.756;6.906;2022-12-19T14:09:01;14.77;;;13.05;;
52210;SDS011;38179;52.756;6.906;2022-12-19T14:11:30;17.33;;;13.27;;
52210;SDS011;38179;52.756;6.906;2022-12-19T14:13:58;17.83;;;13.48;;
52210;SDS011;38179;52.756;6.906;2022-12-19T14:16:44;14.25;;;12.43;;
52210;SDS011;38179;52.756;6.906;2022-12-19T14:19:17;16.88;;;13.15;;
52210;SDS011;38179;52.756;6.906;2022-12-19T14:21:48;14.32;;;12.82;;
52210;SDS011;38179;52.756;6.906;2022-12-19T14:26:45;14.40;;;12.10;;
52210;SDS011;38179;52.756;6.906;2022-12-19T14:29:21;13.70;;;12.05;;
52210;SDS011;38179;52.756;6.906;2022-12-19T14:31:50;15.73;;;12.50;;
52210;SDS011;38179;52.756;6.906;2022-12-19T14:34:25;16.30;;;13.18;;
52210;SDS011;38179;52.756;6.906;2022-12-19T14:36:55;15.32;;;12.80;;
52210;SDS011;38179;52.756;6.906;2022-12-19T14:39:24;16.27;;;13.20;;
52210;SDS011;38179;52.756;6.906;2022-12-19T14:42:16;15.70;;;12.60;;
52210;SDS011;38179;52.756;6.906;2022-12-19T14:45:00;14.35;;;12.85;;
52210;SDS011;38179;52.756;6.906;2022-12-19T14:53:28;18.90;;;14.05;;
52210;SDS011;38179;52.756;6.906;2022-12-19T14:56:00;14.85;;;13.05;;
52210;SDS011;38179;52.756;6.906;2022-12-19T14:58:30;15.10;;;13.25;;
52210;SDS011;38179;52.756;6.906;2022-12-19T15:01:00;15.35;;;12.93;;
52210;SDS011;38179;52.756;6.906;2022-12-19T15:03:29;14.70;;;13.20;;
52210;SDS011;38179;52.756;6.906;2022-12-19T15:08:30;16.20;;;12.55;;
52210;SDS011;38179;52.756;6.906;2022-12-19T15:13:49;17.23;;;13.55;;
52210;SDS011;38179;52.756;6.906;2022-12-19T15:16:24;15.18;;;11.88;;
52210;SDS011;38179;52.756;6.906;2022-12-19T15:19:00;17.63;;;13.00;;
52210;SDS011;38179;52.756;6.906;2022-12-19T15:21:28;16.33;;;14.05;;
52210;SDS011;38179;52.756;6.906;2022-12-19T15:23:54;18.33;;;14.25;;
52210;SDS011;38179;52.756;6.906;2022-12-19T15:28:55;16.30;;;12.90;;
52210;SDS011;38179;52.756;6.906;2022-12-19T15:33:53;15.80;;;13.90;;
52210;SDS011;38179;52.756;6.906;2022-12-19T15:36:20;15.50;;;13.85;;
52210;SDS011;38179;52.756;6.906;2022-12-19T15:38:46;17.25;;;13.90;;
52210;SDS011;38179;52.756;6.906;2022-12-19T15:41:13;16.73;;;13.63;;
52210;SDS011;38179;52.756;6.906;2022-12-19T15:43:44;17.52;;;13.52;;
52210;SDS011;38179;52.756;6.906;2022-12-19T15:46:10;16.60;;;13.32;;
52210;SDS011;38179;52.756;6.906;2022-12-19T15:48:38;18.33;;;14.43;;
52210;SDS011;38179;52.756;6.906;2022-12-19T15:51:11;17.05;;;13.45;;
52210;SDS011;38179;52.756;6.906;2022-12-19T15:53:38;17.50;;;14.00;;
52210;SDS011;38179;52.756;6.906;2022-12-19T15:56:04;14.57;;;12.73;;
52210;SDS011;38179;52.756;6.906;2022-12-19T15:58:56;16.80;;;13.30;;
52210;SDS011;38179;52.756;6.906;2022-12-19T16:01:24;14.77;;;12.52;;
52210;SDS011;38179;52.756;6.906;2022-12-19T16:03:51;18.00;;;13.68;;
52210;SDS011;38179;52.756;6.906;2022-12-19T16:06:18;16.45;;;13.80;;
52210;SDS011;38179;52.756;6.906;2022-12-19T16:08:44;16.33;;;13.75;;
52210;SDS011;38179;52.756;6.906;2022-12-19T16:11:31;15.73;;;13.70;;
52210;SDS011;38179;52.756;6.906;2022-12-19T16:13:56;17.38;;;13.13;;
52210;SDS011;38179;52.756;6.906;2022-12-19T16:16:23;16.85;;;13.25;;
52210;SDS011;38179;52.756;6.906;2022-12-19T16:18:49;16.40;;;13.82;;
52210;SDS011;38179;52.756;6.906;2022-12-19T16:21:19;15.60;;;13.07;;
52210;SDS011;38179;52.756;6.906;2022-12-19T16:23:47;18.48;;;14.32;;
52210;SDS011;38179;52.756;6.906;2022-12-19T16:26:32;19.00;;;13.98;;
52210;SDS011;38179;52.756;6.906;2022-12-19T16:29:00;17.60;;;13.27;;
52210;SDS011;38179;52.756;6.906;2022-12-19T16:31:26;16.00;;;13.10;;
52210;SDS011;38179;52.756;6.906;2022-12-19T16:33:53;15.02;;;13.43;;
52210;SDS011;38179;52.756;6.906;2022-12-19T16:36:19;18.00;;;13.75;;
52210;SDS011;38179;52.756;6.906;2022-12-19T16:38:45;18.13;;;14.20;;
52210;SDS011;38179;52.756;6.906;2022-12-19T16:41:16;15.18;;;12.65;;
52210;SDS011;38179;52.756;6.906;2022-12-19T16:43:48;18.10;;;13.98;;
52210;SDS011;38179;52.756;6.906;2022-12-19T16:46:19;20.05;;;14.55;;
52210;SDS011;38179;52.756;6.906;2022-12-19T16:48:47;15.98;;;13.65;;
52210;SDS011;38179;52.756;6.906;2022-12-19T16:51:18;14.50;;;12.40;;
52210;SDS011;38179;52.756;6.906;2022-12-19T16:53:46;15.90;;;13.30;;
52210;SDS011;38179;52.756;6.906;2022-12-19T16:58:59;15.90;;;13.07;;
52210;SDS011;38179;52.756;6.906;2022-12-19T17:01:27;19.98;;;13.65;;
52210;SDS011;38179;52.756;6.906;2022-12-19T17:03:53;16.70;;;14.50;;
52210;SDS011;38179;52.756;6.906;2022-12-19T17:06:20;16.55;;;13.80;;
52210;SDS011;38179;52.756;6.906;2022-12-19T17:08:46;16.75;;;12.73;;
52210;SDS011;38179;52.756;6.906;2022-12-19T17:11:14;15.57;;;13.07;;
52210;SDS011;38179;52.756;6.906;2022-12-19T17:13:42;14.05;;;12.13;;
52210;SDS011;38179;52.756;6.906;2022-12-19T17:16:11;17.27;;;13.43;;
52210;SDS011;38179;52.756;6.906;2022-12-19T17:18:38;16.48;;;13.00;;
52210;SDS011;38179;52.756;6.906;2022-12-19T17:21:06;16.48;;;12.88;;
52210;SDS011;38179;52.756;6.906;2022-12-19T17:23:35;17.30;;;13.85;;
52210;SDS011;38179;52.756;6.906;2022-12-19T17:26:01;17.88;;;13.60;;
52210;SDS011;38179;52.756;6.906;2022-12-19T17:28:27;16.80;;;13.93;;
52210;SDS011;38179;52.756;6.906;2022-12-19T17:30:54;15.80;;;12.65;;
52210;SDS011;38179;52.756;6.906;2022-12-19T17:33:22;15.15;;;12.70;;
52210;SDS011;38179;52.756;6.906;2022-12-19T17:36:03;17.08;;;13.52;;
52210;SDS011;38179;52.756;6.906;2022-12-19T17:38:30;15.80;;;12.45;;
52210;SDS011;38179;52.756;6.906;2022-12-19T17:40:56;17.00;;;13.20;;
52210;SDS011;38179;52.756;6.906;2022-12-19T17:43:22;15.52;;;12.80;;
52210;SDS011;38179;52.756;6.906;2022-12-19T17:45:48;15.95;;;13.57;;
52210;SDS011;38179;52.756;6.906;2022-12-19T17:50:51;16.25;;;13.90;;
52210;SDS011;38179;52.756;6.906;2022-12-19T17:53:18;14.07;;;12.48;;
52210;SDS011;38179;52.756;6.906;2022-12-19T17:55:44;15.43;;;13.15;;
52210;SDS011;38179;52.756;6.906;2022-12-19T17:58:10;16.02;;;12.68;;
52210;SDS011;38179;52.756;6.906;2022-12-19T18:00:37;17.50;;;12.75;;
52210;SDS011;38179;52.756;6.906;2022-12-19T18:06:00;14.73;;;12.48;;
52210;SDS011;38179;52.756;6.906;2022-12-19T18:08:26;13.18;;;11.73;;
52210;SDS011;38179;52.756;6.906;2022-12-19T18:10:54;14.30;;;12.80;;
52210;SDS011;38179;52.756;6.906;2022-12-19T18:13:23;14.20;;;12.38;;
52210;SDS011;38179;52.756;6.906;2022-12-19T18:15:49;14.52;;;12.45;;
52210;SDS011;38179;52.756;6.906;2022-12-19T18:18:17;14.10;;;12.40;;
52210;SDS011;38179;52.756;6.906;2022-12-19T18:20:46;14.57;;;12.48;;
52210;SDS011;38179;52.756;6.906;2022-12-19T18:23:16;14.48;;;12.73;;
52210;SDS011;38179;52.756;6.906;2022-12-19T18:25:44;14.30;;;12.80;;
52210;SDS011;38179;52.756;6.906;2022-12-19T18:28:10;14.43;;;12.13;;
52210;SDS011;38179;52.756;6.906;2022-12-19T18:30:37;17.35;;;12.68;;
52210;SDS011;38179;52.756;6.906;2022-12-19T18:33:04;14.75;;;12.65;;